createdAt,value
2019-02-04T00:05:44.552Z,93678.10
2019-02-04T00:20:47.174Z,93685.47
2019-02-04T00:35:50.634Z,93709.09
2019-02-04T00:50:53.419Z,93703.88
2019-02-04T01:05:57.342Z,93733.25
2019-02-04T01:21:00.033Z,93739.32
2019-02-04T01:36:04.448Z,93741.27
2019-02-04T01:51:07.033Z,93740.46
2019-02-04T02:06:09.641Z,93766.90
2019-02-04T02:21:13.716Z,93786.44
2019-02-04T02:36:17.125Z,93797.06
2019-02-04T02:51:19.753Z,93785.09
2019-02-04T03:06:22.320Z,93807.07
2019-02-04T03:21:25.057Z,93817.27
2019-02-04T03:36:28.664Z,93813.86
2019-02-04T03:51:31.404Z,93817.38
2019-02-04T04:06:34.397Z,93801.61
2019-02-04T04:21:39.849Z,93813.41
2019-02-04T04:36:42.432Z,93830.55
2019-02-04T04:51:46.714Z,93834.11
2019-02-04T05:06:49.257Z,93860.08
2019-02-04T05:21:52.541Z,93852.11
2019-02-04T05:36:55.129Z,93876.09
2019-02-04T05:51:58.726Z,93897.56
2019-02-04T06:07:01.353Z,93893.03
2019-02-04T06:22:04.488Z,93900.39
2019-02-04T06:37:07.070Z,93917.95
2019-02-04T06:52:09.662Z,93926.94
2019-02-04T07:07:15.088Z,93942.03
2019-02-04T07:22:19.512Z,93974.80
2019-02-04T07:37:23.202Z,93990.19
2019-02-04T07:52:26.573Z,94008.20
2019-02-04T08:07:29.750Z,94012.05
2019-02-04T08:22:33.432Z,94029.42
2019-02-04T08:37:36.861Z,94036.20
2019-02-04T08:52:39.470Z,94034.02
2019-02-04T09:07:42.610Z,94036.28
2019-02-04T09:22:47.457Z,94020.14
2019-02-04T09:37:50.126Z,94022.98
2019-02-04T09:52:52.953Z,94022.95
2019-02-04T10:07:56.631Z,94001.86
2019-02-04T10:23:01.868Z,93983.40
2019-02-04T10:38:05.865Z,93977.86
2019-02-04T10:53:12.109Z,93968.52
2019-02-04T11:08:15.722Z,93966.52
2019-02-04T11:23:18.519Z,93963.42
2019-02-04T11:38:21.395Z,93975.00
2019-02-04T11:53:32.331Z,93970.45
2019-02-04T12:08:30.452Z,93959.41
2019-02-04T12:23:33.045Z,93946.05
2019-02-04T12:38:36.660Z,93932.69
2019-02-04T12:53:40.068Z,93932.92
2019-02-04T13:08:45.735Z,93941.68
2019-02-04T13:23:49.719Z,93950.86
2019-02-04T13:38:53.607Z,93943.47
2019-02-04T13:53:58.336Z,93961.16
2019-02-04T14:09:02.093Z,93960.30
2019-02-04T14:24:05.637Z,93954.48
2019-02-04T14:39:12.933Z,93955.88
2019-02-04T15:10:18.865Z,93947.02
2019-02-04T15:25:42.931Z,93964.75
2019-02-04T15:40:55.148Z,93984.23
2019-02-04T15:55:59.073Z,93990.53
2019-02-04T16:11:05.897Z,94003.75
2019-02-04T16:26:09.386Z,94007.98
2019-02-04T16:41:12.071Z,94035.39
2019-02-04T16:56:14.748Z,94050.42
2019-02-04T17:11:17.548Z,94062.98
2019-02-04T17:26:23.252Z,94077.50
2019-02-04T17:41:26.074Z,94097.61
2019-02-04T17:56:30.437Z,94088.27
2019-02-04T18:11:34.999Z,94093.11
2019-02-04T18:26:37.749Z,94103.70
2019-02-04T18:41:40.405Z,94112.61
2019-02-04T18:56:43.124Z,94122.32
2019-02-04T19:11:48.307Z,94121.63
2019-02-04T19:26:54.211Z,94111.20
2019-02-04T19:41:57.647Z,94119.44
2019-02-04T19:57:01.767Z,94128.27
2019-02-04T20:12:04.937Z,94130.21
2019-02-04T20:27:07.587Z,94131.43
2019-02-04T20:42:11.852Z,94138.88
2019-02-04T20:57:16.098Z,94120.00
2019-02-04T21:12:18.671Z,94123.69
2019-02-04T21:27:21.260Z,94131.38
2019-02-04T21:42:23.884Z,94129.02
2019-02-04T21:57:26.537Z,94143.48
2019-02-04T22:12:29.165Z,94137.14
2019-02-04T22:27:32.752Z,94153.08
2019-02-04T22:42:35.415Z,94151.53
2019-02-04T22:57:39.173Z,94163.22
2019-02-04T23:12:41.752Z,94147.75
2019-02-04T23:27:46.241Z,94140.97
2019-02-04T23:42:48.882Z,94117.67
2019-02-04T23:57:52.180Z,94126.16
